Barbarossa — IBJD — position and weather

sailwx.info

Track history (hours):
 
Tides and Currents Weather Stations Pressure Air Temp Water Temp Dewpoint Dewpoint Depression Visibility Wind Speed Wind Dir Waves Ship Positions

Barbarossa

Last reported at 2019-Feb-12 06:18 UTC. Time now 2019-Feb-16 03:14 UTC.
Position N 26°09' W 079°31'.

Length 294 m; draft 8.1 m.

Type: Ship. MMSI: 247282900.

Date/timePositionNaut miles runAvg speedWind from/ knotsBaromVisibWave heightAir tempDewpointWater temp
2019-Feb-12 06:18N 26°09' W 079°31'518.2
2019-Feb-12 06:00N 26°09' W 079°37'917.8
2019-Feb-12 05:30N 26°07' W 079°47'918.1
2019-Feb-12 05:00N 26°05' W 079°56'713.8
2019-Feb-12 04:30N 26°06' W 080°04'3 5.9
2019-Feb-12 04:00N 26°05' W 080°07'0 0.0
2019-Feb-12 03:30N 26°05' W 080°07'0 0.0
2019-Feb-12 03:01N 26°05' W 080°07'0 0.0
2019-Feb-12 02:31N 26°05' W 080°07'0 0.0
2019-Feb-12 02:00N 26°05' W 080°07'0 0.0
2019-Feb-12 01:30N 26°05' W 080°07'0 0.0
2019-Feb-12 01:00N 26°05' W 080°07'0 0.0
2019-Feb-12 00:29N 26°05' W 080°07'0 0.0
2019-Feb-11 23:59N 26°05' W 080°07'0 0.0
2019-Feb-11 23:29N 26°05' W 080°07'0 0.0
2019-Feb-11 22:59N 26°05' W 080°07'0 0.0
2019-Feb-11 22:29N 26°05' W 080°07'0 0.0
2019-Feb-11 21:59N 26°05' W 080°07'0 0.0
2019-Feb-11 21:29N 26°05' W 080°07'0 0.0
2019-Feb-11 20:59N 26°05' W 080°07'0 0.0
2019-Feb-11 20:29N 26°05' W 080°07'0 0.0
2019-Feb-11 19:59N 26°05' W 080°07'0 0.0
2019-Feb-11 19:29N 26°05' W 080°07'0 0.0
2019-Feb-11 18:58N 26°05' W 080°07'0 0.0
2019-Feb-11 18:28N 26°05' W 080°07'0 0.0
2019-Feb-11 17:57N 26°05' W 080°07'0 0.0
2019-Feb-11 17:30N 26°05' W 080°07'0 0.0
2019-Feb-11 17:00N 26°05' W 080°07'0 0.0
2019-Feb-11 16:30N 26°05' W 080°07'0 0.0
2019-Feb-11 15:59N 26°05' W 080°07'0 0.0
2019-Feb-11 15:29N 26°05' W 080°07'0 0.0
2019-Feb-11 14:57N 26°05' W 080°07'0 0.0
2019-Feb-11 14:29N 26°05' W 080°07'0 0.0
2019-Feb-11 13:59N 26°05' W 080°07'0 0.0
2019-Feb-11 13:30N 26°05' W 080°07'0 0.0
2019-Feb-11 12:58N 26°05' W 080°07'0 0.0
2019-Feb-11 12:28N 26°05' W 080°07'0 0.0
2019-Feb-11 11:58N 26°05' W 080°07'0 0.0
2019-Feb-11 11:28N 26°05' W 080°07'0 0.0
2019-Feb-11 11:00N 26°05' W 080°07'0 0.0
2019-Feb-11 10:30N 26°05' W 080°07'1 1.8
2019-Feb-11 10:01N 26°06' W 080°06'5 9.1
2019-Feb-11 09:30N 26°05' W 080°01'4 8.8
2019-Feb-11 09:00N 26°04' W 079°56'713.7
2019-Feb-11 08:30N 26°04' W 079°49'714.2
2019-Feb-11 08:00N 26°02' W 079°41'816.3
2019-Feb-11 07:30N 25°54' W 079°39'917.5
2019-Feb-11 07:00N 25°45' W 079°39'917.5
2019-Feb-11 06:30N 25°36' W 079°39'1319.8
2019-Feb-11 05:50N 25°23' W 079°40'49017.6
2019-Feb-10 02:03N 20°41' W 086°55'118.8
2019-Feb-10 02:01N 20°40' W 086°56'917.3
2019-Feb-10 01:31N 20°34' W 087°02'5 9.7
2019-Feb-10 01:00N 20°30' W 086°60'1 2.6
2019-Feb-10 00:29N 20°29' W 086°59'0 0.0
2019-Feb-09 23:59N 20°29' W 086°59'0 0.0
2019-Feb-09 23:29N 20°29' W 086°59'0 0.0
2019-Feb-09 22:59N 20°29' W 086°59'0 0.0
2019-Feb-09 22:29N 20°29' W 086°59'0 0.0
2019-Feb-09 21:59N 20°29' W 086°59'0 0.0
2019-Feb-09 21:29N 20°29' W 086°59'0 0.0
2019-Feb-09 20:59N 20°29' W 086°59'0 0.0
2019-Feb-09 20:30N 20°29' W 086°59'0 0.0
2019-Feb-09 20:00N 20°29' W 086°59'0 0.0
2019-Feb-09 19:29N 20°29' W 086°59'0 0.0
2019-Feb-09 18:59N 20°29' W 086°59'0 0.0
2019-Feb-09 18:29N 20°29' W 086°59'0 0.0
2019-Feb-09 18:00N 20°29' W 086°59'0 0.0
2019-Feb-09 17:28N 20°29' W 086°59'0 0.0
2019-Feb-09 16:58N 20°29' W 086°59'0 0.0
2019-Feb-09 16:30N 20°29' W 086°59'0 0.0
2019-Feb-09 15:59N 20°29' W 086°59'0 0.0
2019-Feb-09 15:29N 20°29' W 086°59'0 0.0
2019-Feb-09 14:59N 20°29' W 086°59'0 0.0
2019-Feb-09 14:29N 20°29' W 086°59'0 0.0
2019-Feb-09 13:59N 20°29' W 086°59'0 0.0
2019-Feb-09 13:29N 20°29' W 086°59'0 0.0
2019-Feb-09 12:59N 20°29' W 086°59'0 0.3
2019-Feb-09 12:30N 20°29' W 086°59'3 5.0
2019-Feb-09 12:00N 20°30' W 087°01'613.0
2019-Feb-09 11:30N 20°25' W 087°05'  
2019-Feb-02 06:40N 26°09' W 079°31'316.6
2019-Feb-02 06:30N 26°09' W 079°33'  
Track history (hours):
 
Tides and Currents Weather Stations Pressure Air Temp Water Temp Dewpoint Dewpoint Depression Visibility Wind Speed Wind Dir Waves Ship Positions

Barbarossa

Last reported at 2019-Feb-12 06:18 UTC. Time now 2019-Feb-16 03:14 UTC.
Position N 26°09' W 079°31'.

Length 294 m; draft 8.1 m.

Type: Ship. MMSI: 247282900.

Date/timePositionNaut miles runAvg speedWind from/ knotsBaromVisibWave heightAir tempDewpointWater temp
2019-Feb-12 06:18N 26°09' W 079°31'518.2
2019-Feb-12 06:00N 26°09' W 079°37'917.8
2019-Feb-12 05:30N 26°07' W 079°47'918.1
2019-Feb-12 05:00N 26°05' W 079°56'713.8
2019-Feb-12 04:30N 26°06' W 080°04'3 5.9
2019-Feb-12 04:00N 26°05' W 080°07'0 0.0
2019-Feb-12 03:30N 26°05' W 080°07'0 0.0
2019-Feb-12 03:01N 26°05' W 080°07'0 0.0
2019-Feb-12 02:31N 26°05' W 080°07'0 0.0
2019-Feb-12 02:00N 26°05' W 080°07'0 0.0
2019-Feb-12 01:30N 26°05' W 080°07'0 0.0
2019-Feb-12 01:00N 26°05' W 080°07'0 0.0
2019-Feb-12 00:29N 26°05' W 080°07'0 0.0
2019-Feb-11 23:59N 26°05' W 080°07'0 0.0
2019-Feb-11 23:29N 26°05' W 080°07'0 0.0
2019-Feb-11 22:59N 26°05' W 080°07'0 0.0
2019-Feb-11 22:29N 26°05' W 080°07'0 0.0
2019-Feb-11 21:59N 26°05' W 080°07'0 0.0
2019-Feb-11 21:29N 26°05' W 080°07'0 0.0
2019-Feb-11 20:59N 26°05' W 080°07'0 0.0
2019-Feb-11 20:29N 26°05' W 080°07'0 0.0
2019-Feb-11 19:59N 26°05' W 080°07'0 0.0
2019-Feb-11 19:29N 26°05' W 080°07'0 0.0
2019-Feb-11 18:58N 26°05' W 080°07'0 0.0
2019-Feb-11 18:28N 26°05' W 080°07'0 0.0
2019-Feb-11 17:57N 26°05' W 080°07'0 0.0
2019-Feb-11 17:30N 26°05' W 080°07'0 0.0
2019-Feb-11 17:00N 26°05' W 080°07'0 0.0
2019-Feb-11 16:30N 26°05' W 080°07'0 0.0
2019-Feb-11 15:59N 26°05' W 080°07'0 0.0
2019-Feb-11 15:29N 26°05' W 080°07'0 0.0
2019-Feb-11 14:57N 26°05' W 080°07'0 0.0
2019-Feb-11 14:29N 26°05' W 080°07'0 0.0
2019-Feb-11 13:59N 26°05' W 080°07'0 0.0
2019-Feb-11 13:30N 26°05' W 080°07'0 0.0
2019-Feb-11 12:58N 26°05' W 080°07'0 0.0
2019-Feb-11 12:28N 26°05' W 080°07'0 0.0
2019-Feb-11 11:58N 26°05' W 080°07'0 0.0
2019-Feb-11 11:28N 26°05' W 080°07'0 0.0
2019-Feb-11 11:00N 26°05' W 080°07'0 0.0
2019-Feb-11 10:30N 26°05' W 080°07'1 1.8
2019-Feb-11 10:01N 26°06' W 080°06'5 9.1
2019-Feb-11 09:30N 26°05' W 080°01'4 8.8
2019-Feb-11 09:00N 26°04' W 079°56'713.7
2019-Feb-11 08:30N 26°04' W 079°49'714.2
2019-Feb-11 08:00N 26°02' W 079°41'816.3
2019-Feb-11 07:30N 25°54' W 079°39'917.5
2019-Feb-11 07:00N 25°45' W 079°39'917.5
2019-Feb-11 06:30N 25°36' W 079°39'1319.8
2019-Feb-11 05:50N 25°23' W 079°40'49017.6
2019-Feb-10 02:03N 20°41' W 086°55'118.8
2019-Feb-10 02:01N 20°40' W 086°56'917.3
2019-Feb-10 01:31N 20°34' W 087°02'5 9.7
2019-Feb-10 01:00N 20°30' W 086°60'1 2.6
2019-Feb-10 00:29N 20°29' W 086°59'0 0.0
2019-Feb-09 23:59N 20°29' W 086°59'0 0.0
2019-Feb-09 23:29N 20°29' W 086°59'0 0.0
2019-Feb-09 22:59N 20°29' W 086°59'0 0.0
2019-Feb-09 22:29N 20°29' W 086°59'0 0.0
2019-Feb-09 21:59N 20°29' W 086°59'0 0.0
2019-Feb-09 21:29N 20°29' W 086°59'0 0.0
2019-Feb-09 20:59N 20°29' W 086°59'0 0.0
2019-Feb-09 20:30N 20°29' W 086°59'0 0.0
2019-Feb-09 20:00N 20°29' W 086°59'0 0.0
2019-Feb-09 19:29N 20°29' W 086°59'0 0.0
2019-Feb-09 18:59N 20°29' W 086°59'0 0.0
2019-Feb-09 18:29N 20°29' W 086°59'0 0.0
2019-Feb-09 18:00N 20°29' W 086°59'0 0.0
2019-Feb-09 17:28N 20°29' W 086°59'0 0.0
2019-Feb-09 16:58N 20°29' W 086°59'0 0.0
2019-Feb-09 16:30N 20°29' W 086°59'0 0.0
2019-Feb-09 15:59N 20°29' W 086°59'0 0.0
2019-Feb-09 15:29N 20°29' W 086°59'0 0.0
2019-Feb-09 14:59N 20°29' W 086°59'0 0.0
2019-Feb-09 14:29N 20°29' W 086°59'0 0.0
2019-Feb-09 13:59N 20°29' W 086°59'0 0.0
2019-Feb-09 13:29N 20°29' W 086°59'0 0.0
2019-Feb-09 12:59N 20°29' W 086°59'0 0.3
2019-Feb-09 12:30N 20°29' W 086°59'3 5.0
2019-Feb-09 12:00N 20°30' W 087°01'613.0
2019-Feb-09 11:30N 20°25' W 087°05'  
2019-Feb-02 06:40N 26°09' W 079°31'316.6
2019-Feb-02 06:30N 26°09' W 079°33'  

Dump ship's entire track history